CES5184 ZBAD-ZSSS
Flight info
| Callsign | CES5184 |
|---|---|
| Flight time | 1h 29m |
| Altitude | 38100 |
| Route | ELKUR4K ELKUR W40 DOXAB/K0889S1130 W40 YQG/K0882S1160 W142 DALIM/K0885S1130 A593 DPX A470 DALNU W166 ZJ W167 SASAN SAS61A |
| Aircraft | B77W/H-SDE1E2E3FGHIJ2J3J4J5M1RWXY/LB1D1 |
Departure
| Time | 2026-04-27 15:13 |
|---|---|
| Airport | Beijing Daxing International Airport (ZBAD) |
Arrival
| Time | 2026-04-27 16:42 |
|---|---|
| Airport | Shanghai Hongqiao International Airport (ZSSS) |
| Time | Latitude | Longitude | Altitude | Speed | Heading |
|---|---|---|---|---|---|
| 2026-04-27 14:36 | 39.50936 | 116.41695 | 97 ft | 0 kts | 185° |
| 2026-04-27 15:02 | 39.50942 | 116.41696 | 97 ft | 2 kts | 185° |
| 2026-04-27 15:02 | 39.50957 | 116.41698 | 97 ft | 2 kts | 185° |
| 2026-04-27 15:02 | 39.50967 | 116.41699 | 97 ft | 2 kts | 183° |
| 2026-04-27 15:03 | 39.50982 | 116.41698 | 97 ft | 2 kts | 163° |
| 2026-04-27 15:03 | 39.50995 | 116.41690 | 97 ft | 2 kts | 145° |
| 2026-04-27 15:03 | 39.51007 | 116.41677 | 97 ft | 2 kts | 129° |
| 2026-04-27 15:03 | 39.51015 | 116.41661 | 97 ft | 2 kts | 111° |
| 2026-04-27 15:04 | 39.51018 | 116.41646 | 97 ft | 0 kts | 98° |
| 2026-04-27 15:04 | 39.51018 | 116.41643 | 97 ft | 0 kts | 97° |
| 2026-04-27 15:06 | 39.51018 | 116.41646 | 97 ft | 1 kts | 97° |
| 2026-04-27 15:06 | 39.51015 | 116.41675 | 97 ft | 5 kts | 97° |
| 2026-04-27 15:06 | 39.51010 | 116.41738 | 97 ft | 9 kts | 95° |
| 2026-04-27 15:06 | 39.51011 | 116.41847 | 97 ft | 14 kts | 84° |
| 2026-04-27 15:07 | 39.51025 | 116.41997 | 97 ft | 19 kts | 83° |
| 2026-04-27 15:07 | 39.51053 | 116.42152 | 97 ft | 15 kts | 46° |
| 2026-04-27 15:07 | 39.51165 | 116.42163 | 97 ft | 19 kts | 351° |
| 2026-04-27 15:07 | 39.51314 | 116.42137 | 97 ft | 24 kts | 352° |
| 2026-04-27 15:08 | 39.51408 | 116.42196 | 97 ft | 15 kts | 75° |
| 2026-04-27 15:08 | 39.51430 | 116.42359 | 97 ft | 20 kts | 82° |
| 2026-04-27 15:08 | 39.51450 | 116.42564 | 97 ft | 25 kts | 83° |
| 2026-04-27 15:08 | 39.51472 | 116.42796 | 97 ft | 24 kts | 83° |
| 2026-04-27 15:09 | 39.51491 | 116.42999 | 97 ft | 15 kts | 83° |
| 2026-04-27 15:09 | 39.51520 | 116.43088 | 97 ft | 9 kts | 31° |
| 2026-04-27 15:09 | 39.51553 | 116.43102 | 97 ft | 0 kts | 10° |
| 2026-04-27 15:09 | 39.51556 | 116.43103 | 97 ft | 1 kts | 10° |
| 2026-04-27 15:10 | 39.51577 | 116.43108 | 97 ft | 4 kts | 11° |
| 2026-04-27 15:10 | 39.51620 | 116.43120 | 97 ft | 7 kts | 11° |
| 2026-04-27 15:10 | 39.51655 | 116.43148 | 97 ft | 6 kts | 71° |
| 2026-04-27 15:10 | 39.51654 | 116.43206 | 97 ft | 6 kts | 103° |
| 2026-04-27 15:11 | 39.51654 | 116.43209 | 97 ft | 0 kts | 102° |
| 2026-04-27 15:12 | 39.51653 | 116.43212 | 97 ft | 3 kts | 102° |
| 2026-04-27 15:13 | 39.51590 | 116.43567 | 97 ft | 81 kts | 103° |
| 2026-04-27 15:13 | 39.51402 | 116.44614 | 98 ft | 153 kts | 102° |
| 2026-04-27 15:13 | 39.51133 | 116.46079 | 571 ft | 176 kts | 107° |
| 2026-04-27 15:13 | 39.50795 | 116.47608 | 1462 ft | 182 kts | 107° |
| 2026-04-27 15:14 | 39.50516 | 116.49229 | 2118 ft | 191 kts | 101° |
| 2026-04-27 15:14 | 39.50229 | 116.50967 | 2642 ft | 206 kts | 102° |
| 2026-04-27 15:14 | 39.49931 | 116.52865 | 3202 ft | 221 kts | 102° |
| 2026-04-27 15:14 | 39.49580 | 116.54878 | 3735 ft | 237 kts | 103° |
| 2026-04-27 15:15 | 39.49198 | 116.56963 | 4459 ft | 242 kts | 103° |
| 2026-04-27 15:15 | 39.48796 | 116.59111 | 4897 ft | 255 kts | 102° |
| 2026-04-27 15:15 | 39.48387 | 116.61392 | 4937 ft | 261 kts | 102° |
| 2026-04-27 15:15 | 39.47980 | 116.63673 | 4935 ft | 262 kts | 100° |
| 2026-04-27 15:16 | 39.47615 | 116.66001 | 4932 ft | 263 kts | 100° |
| 2026-04-27 15:16 | 39.47279 | 116.68329 | 4937 ft | 265 kts | 98° |
| 2026-04-27 15:16 | 39.46945 | 116.70670 | 4931 ft | 266 kts | 99° |
| 2026-04-27 15:16 | 39.46611 | 116.73033 | 4928 ft | 267 kts | 98° |
| 2026-04-27 15:17 | 39.46167 | 116.75351 | 4923 ft | 268 kts | 110° |
| 2026-04-27 15:17 | 39.45121 | 116.77361 | 4949 ft | 274 kts | 134° |
| 2026-04-27 15:17 | 39.43472 | 116.78775 | 5640 ft | 287 kts | 153° |
| 2026-04-27 15:17 | 39.41679 | 116.79758 | 6801 ft | 281 kts | 156° |
| 2026-04-27 15:18 | 39.39822 | 116.80700 | 7593 ft | 289 kts | 157° |
| 2026-04-27 15:18 | 39.37961 | 116.81625 | 8417 ft | 293 kts | 157° |
| 2026-04-27 15:18 | 39.36040 | 116.82591 | 9270 ft | 297 kts | 158° |
| 2026-04-27 15:18 | 39.34094 | 116.83579 | 10074 ft | 302 kts | 156° |
| 2026-04-27 15:19 | 39.32103 | 116.84647 | 10612 ft | 317 kts | 157° |
| 2026-04-27 15:19 | 39.29988 | 116.85726 | 11046 ft | 336 kts | 158° |
| 2026-04-27 15:19 | 39.27753 | 116.86852 | 11520 ft | 353 kts | 160° |
| 2026-04-27 15:19 | 39.25396 | 116.87998 | 12026 ft | 370 kts | 159° |
| 2026-04-27 15:20 | 39.22942 | 116.89228 | 12550 ft | 386 kts | 159° |
| 2026-04-27 15:20 | 39.20417 | 116.90546 | 13098 ft | 401 kts | 160° |
| 2026-04-27 15:20 | 39.17785 | 116.91869 | 13820 ft | 411 kts | 160° |
| 2026-04-27 15:20 | 39.15093 | 116.93206 | 14665 ft | 418 kts | 161° |
| 2026-04-27 15:21 | 39.12371 | 116.94575 | 15552 ft | 424 kts | 161° |
| 2026-04-27 15:21 | 39.09605 | 116.95969 | 16430 ft | 430 kts | 161° |
| 2026-04-27 15:21 | 39.06791 | 116.97385 | 17273 ft | 437 kts | 162° |
| 2026-04-27 15:21 | 39.03983 | 116.98795 | 18086 ft | 443 kts | 162° |
| 2026-04-27 15:22 | 39.01059 | 117.00264 | 18900 ft | 449 kts | 162° |
| 2026-04-27 15:22 | 38.98144 | 117.01726 | 19680 ft | 456 kts | 163° |
| 2026-04-27 15:22 | 38.95141 | 117.03001 | 20427 ft | 457 kts | 172° |
| 2026-04-27 15:22 | 38.92004 | 117.03651 | 21168 ft | 455 kts | 182° |
| 2026-04-27 15:23 | 38.88897 | 117.03635 | 21949 ft | 449 kts | 192° |
| 2026-04-27 15:23 | 38.85850 | 117.02972 | 22720 ft | 443 kts | 202° |
| 2026-04-27 15:23 | 38.82948 | 117.01692 | 23494 ft | 436 kts | 212° |
| 2026-04-27 15:23 | 38.80331 | 116.99901 | 24249 ft | 428 kts | 221° |
| 2026-04-27 15:24 | 38.77978 | 116.97623 | 24981 ft | 421 kts | 230° |
| 2026-04-27 15:24 | 38.75947 | 116.94932 | 25700 ft | 415 kts | 238° |
| 2026-04-27 15:24 | 38.74314 | 116.91975 | 26404 ft | 409 kts | 245° |
| 2026-04-27 15:24 | 38.72992 | 116.88757 | 27161 ft | 407 kts | 249° |
| 2026-04-27 15:25 | 38.71733 | 116.85532 | 27964 ft | 408 kts | 249° |
| 2026-04-27 15:25 | 38.70438 | 116.82274 | 28770 ft | 409 kts | 249° |
| 2026-04-27 15:25 | 38.69136 | 116.79070 | 29558 ft | 410 kts | 247° |
| 2026-04-27 15:25 | 38.67585 | 116.76009 | 30484 ft | 413 kts | 240° |
| 2026-04-27 15:26 | 38.65687 | 116.73266 | 31572 ft | 413 kts | 233° |
| 2026-04-27 15:26 | 38.63505 | 116.70881 | 32651 ft | 412 kts | 227° |
| 2026-04-27 15:26 | 38.61110 | 116.68875 | 33574 ft | 414 kts | 221° |
| 2026-04-27 15:26 | 38.58518 | 116.67260 | 34296 ft | 421 kts | 215° |
| 2026-04-27 15:27 | 38.55701 | 116.66046 | 34936 ft | 431 kts | 208° |
| 2026-04-27 15:27 | 38.52716 | 116.65271 | 35201 ft | 443 kts | 202° |
| 2026-04-27 15:27 | 38.46563 | 116.64502 | 35220 ft | 439 kts | 200° |
| 2026-04-27 15:28 | 38.40467 | 116.63801 | 35219 ft | 439 kts | 200° |
| 2026-04-27 15:28 | 38.34394 | 116.63106 | 35218 ft | 438 kts | 201° |
| 2026-04-27 15:29 | 38.28144 | 116.63106 | 35213 ft | 466 kts | 187° |
| 2026-04-27 15:29 | 38.24938 | 116.63954 | 35213 ft | 483 kts | 180° |
| 2026-04-27 15:29 | 38.21717 | 116.65145 | 35217 ft | 487 kts | 179° |
| 2026-04-27 15:30 | 38.15213 | 116.67612 | 35219 ft | 487 kts | 179° |
| 2026-04-27 15:30 | 38.08711 | 116.70063 | 35221 ft | 487 kts | 179° |
| 2026-04-27 15:31 | 38.02183 | 116.72571 | 35222 ft | 487 kts | 179° |
| 2026-04-27 15:31 | 37.95663 | 116.75065 | 35223 ft | 487 kts | 179° |
| 2026-04-27 15:32 | 37.89212 | 116.77523 | 35223 ft | 485 kts | 179° |
| 2026-04-27 15:32 | 37.82760 | 116.79971 | 35225 ft | 484 kts | 179° |
| 2026-04-27 15:33 | 37.76306 | 116.82413 | 35224 ft | 484 kts | 179° |
| 2026-04-27 15:33 | 37.69878 | 116.84843 | 35225 ft | 484 kts | 179° |
| 2026-04-27 15:34 | 37.63378 | 116.87296 | 35225 ft | 484 kts | 179° |
| 2026-04-27 15:34 | 37.56942 | 116.89720 | 35224 ft | 484 kts | 179° |
| 2026-04-27 15:35 | 37.50465 | 116.92154 | 35225 ft | 484 kts | 179° |
| 2026-04-27 15:35 | 37.43991 | 116.94583 | 35224 ft | 484 kts | 179° |
| 2026-04-27 15:36 | 37.38216 | 116.96746 | 35225 ft | 484 kts | 179° |
| 2026-04-27 15:36 | 37.31791 | 116.99150 | 35225 ft | 484 kts | 179° |
| 2026-04-27 15:37 | 37.25359 | 117.01804 | 35228 ft | 494 kts | 174° |
| 2026-04-27 15:37 | 37.18926 | 117.04884 | 35225 ft | 494 kts | 174° |
| 2026-04-27 15:38 | 37.12508 | 117.07923 | 35225 ft | 495 kts | 174° |
| 2026-04-27 15:38 | 37.06018 | 117.10972 | 35225 ft | 496 kts | 174° |
| 2026-04-27 15:39 | 36.99513 | 117.14017 | 35225 ft | 496 kts | 174° |
| 2026-04-27 15:39 | 36.93074 | 117.17017 | 35225 ft | 496 kts | 174° |
| 2026-04-27 15:40 | 36.86563 | 117.20027 | 35220 ft | 492 kts | 176° |
| 2026-04-27 15:40 | 36.83339 | 117.21069 | 35223 ft | 472 kts | 185° |
| 2026-04-27 15:40 | 36.80137 | 117.21487 | 35223 ft | 454 kts | 193° |
| 2026-04-27 15:41 | 36.73831 | 117.21508 | 35280 ft | 457 kts | 195° |
| 2026-04-27 15:41 | 36.70629 | 117.21489 | 35715 ft | 459 kts | 195° |
| 2026-04-27 15:41 | 36.67444 | 117.21476 | 36412 ft | 454 kts | 195° |
| 2026-04-27 15:42 | 36.64285 | 117.21456 | 37008 ft | 451 kts | 195° |
| 2026-04-27 15:42 | 36.61153 | 117.21408 | 37197 ft | 454 kts | 196° |
| 2026-04-27 15:42 | 36.54777 | 117.21384 | 37209 ft | 460 kts | 194° |
| 2026-04-27 15:43 | 36.48302 | 117.21346 | 37214 ft | 468 kts | 195° |
| 2026-04-27 15:43 | 36.41650 | 117.21668 | 37193 ft | 495 kts | 183° |
| 2026-04-27 15:44 | 36.38261 | 117.22681 | 37210 ft | 506 kts | 178° |
| 2026-04-27 15:44 | 36.34900 | 117.23882 | 37211 ft | 509 kts | 176° |
| 2026-04-27 15:44 | 36.28118 | 117.26424 | 37224 ft | 509 kts | 176° |
| 2026-04-27 15:45 | 36.21337 | 117.28934 | 37210 ft | 510 kts | 176° |
| 2026-04-27 15:45 | 36.14508 | 117.31483 | 37215 ft | 510 kts | 176° |
| 2026-04-27 15:46 | 36.07688 | 117.33978 | 37214 ft | 510 kts | 176° |
| 2026-04-27 15:46 | 36.00929 | 117.36457 | 37202 ft | 510 kts | 176° |
| 2026-04-27 15:47 | 35.94107 | 117.38960 | 37207 ft | 510 kts | 176° |
| 2026-04-27 15:47 | 35.87349 | 117.41528 | 37189 ft | 511 kts | 174° |
| 2026-04-27 15:48 | 35.80547 | 117.44110 | 37185 ft | 511 kts | 175° |
| 2026-04-27 15:49 | 35.70378 | 117.47879 | 37212 ft | 510 kts | 175° |
| 2026-04-27 15:49 | 35.63618 | 117.50351 | 37189 ft | 512 kts | 174° |
| 2026-04-27 15:50 | 35.56850 | 117.52902 | 37189 ft | 510 kts | 174° |
| 2026-04-27 15:50 | 35.50056 | 117.55443 | 37193 ft | 509 kts | 174° |
| 2026-04-27 15:51 | 35.43294 | 117.57934 | 37173 ft | 509 kts | 175° |
| 2026-04-27 15:51 | 35.36780 | 117.60285 | 37185 ft | 509 kts | 175° |
| 2026-04-27 15:52 | 35.30051 | 117.62775 | 37168 ft | 500 kts | 174° |
| 2026-04-27 15:52 | 35.23464 | 117.65205 | 37183 ft | 490 kts | 176° |
| 2026-04-27 15:53 | 35.16914 | 117.67608 | 37148 ft | 493 kts | 175° |
| 2026-04-27 15:53 | 35.10326 | 117.70030 | 37150 ft | 493 kts | 175° |
| 2026-04-27 15:54 | 35.03738 | 117.72461 | 37152 ft | 492 kts | 175° |
| 2026-04-27 15:54 | 34.97200 | 117.74882 | 37157 ft | 491 kts | 175° |
| 2026-04-27 15:55 | 34.90641 | 117.77274 | 37153 ft | 490 kts | 175° |
| 2026-04-27 15:55 | 34.84122 | 117.79662 | 37142 ft | 490 kts | 175° |
| 2026-04-27 15:56 | 34.77578 | 117.82034 | 37141 ft | 490 kts | 175° |
| 2026-04-27 15:56 | 34.71011 | 117.84413 | 37147 ft | 490 kts | 175° |
| 2026-04-27 15:57 | 34.64481 | 117.86749 | 37144 ft | 489 kts | 174° |
| 2026-04-27 15:57 | 34.57944 | 117.89088 | 37141 ft | 488 kts | 174° |
| 2026-04-27 15:58 | 34.51446 | 117.91415 | 37140 ft | 487 kts | 174° |
| 2026-04-27 15:58 | 34.44907 | 117.93753 | 37139 ft | 487 kts | 174° |
| 2026-04-27 15:59 | 34.38413 | 117.96068 | 37139 ft | 487 kts | 174° |
| 2026-04-27 15:59 | 34.31860 | 117.98403 | 37138 ft | 487 kts | 174° |
| 2026-04-27 16:00 | 34.25330 | 118.00739 | 37138 ft | 488 kts | 174° |
| 2026-04-27 16:00 | 34.18830 | 118.03110 | 37136 ft | 488 kts | 173° |
| 2026-04-27 16:01 | 34.12398 | 118.05453 | 37154 ft | 487 kts | 173° |
| 2026-04-27 16:01 | 34.05855 | 118.07832 | 37154 ft | 485 kts | 174° |
| 2026-04-27 16:02 | 33.99424 | 118.10165 | 37132 ft | 485 kts | 173° |
| 2026-04-27 16:02 | 33.92952 | 118.12525 | 37131 ft | 485 kts | 173° |
| 2026-04-27 16:03 | 33.86503 | 118.14874 | 37107 ft | 478 kts | 173° |
| 2026-04-27 16:03 | 33.80254 | 118.17784 | 37105 ft | 493 kts | 159° |
| 2026-04-27 16:04 | 33.74485 | 118.22384 | 37125 ft | 501 kts | 154° |
| 2026-04-27 16:04 | 33.68762 | 118.27155 | 37124 ft | 500 kts | 154° |
| 2026-04-27 16:05 | 33.63028 | 118.31923 | 37123 ft | 500 kts | 153° |
| 2026-04-27 16:05 | 33.57277 | 118.36694 | 37123 ft | 500 kts | 153° |
| 2026-04-27 16:06 | 33.51552 | 118.41433 | 37122 ft | 500 kts | 153° |
| 2026-04-27 16:06 | 33.46497 | 118.45611 | 37121 ft | 500 kts | 153° |
| 2026-04-27 16:07 | 33.40792 | 118.50320 | 37120 ft | 500 kts | 153° |
| 2026-04-27 16:07 | 33.35035 | 118.55061 | 37119 ft | 499 kts | 153° |
| 2026-04-27 16:08 | 33.29247 | 118.59823 | 37118 ft | 499 kts | 153° |
| 2026-04-27 16:08 | 33.23547 | 118.64500 | 37118 ft | 499 kts | 153° |
| 2026-04-27 16:09 | 33.17821 | 118.69219 | 37097 ft | 498 kts | 153° |
| 2026-04-27 16:09 | 33.09265 | 118.76327 | 37095 ft | 498 kts | 153° |
| 2026-04-27 16:10 | 32.97889 | 118.85746 | 37094 ft | 497 kts | 153° |
| 2026-04-27 16:11 | 32.89346 | 118.92801 | 37093 ft | 497 kts | 153° |
| 2026-04-27 16:12 | 32.80863 | 118.99815 | 37084 ft | 498 kts | 152° |
| 2026-04-27 16:12 | 32.75140 | 119.04567 | 36569 ft | 503 kts | 152° |
| 2026-04-27 16:13 | 32.72290 | 119.06932 | 36069 ft | 502 kts | 152° |
| 2026-04-27 16:13 | 32.66575 | 119.11668 | 35062 ft | 497 kts | 152° |
| 2026-04-27 16:13 | 32.63760 | 119.13997 | 34565 ft | 498 kts | 152° |
| 2026-04-27 16:14 | 32.58054 | 119.18711 | 33558 ft | 499 kts | 152° |
| 2026-04-27 16:14 | 32.52422 | 119.23358 | 32565 ft | 496 kts | 152° |
| 2026-04-27 16:15 | 32.46743 | 119.28034 | 31565 ft | 496 kts | 152° |
| 2026-04-27 16:15 | 32.41074 | 119.32697 | 30567 ft | 496 kts | 152° |
| 2026-04-27 16:16 | 32.35391 | 119.37365 | 29570 ft | 494 kts | 152° |
| 2026-04-27 16:16 | 32.29790 | 119.41962 | 28581 ft | 485 kts | 152° |
| 2026-04-27 16:17 | 32.24292 | 119.46465 | 27595 ft | 474 kts | 152° |
| 2026-04-27 16:17 | 32.18915 | 119.50861 | 26608 ft | 464 kts | 152° |
| 2026-04-27 16:18 | 32.13681 | 119.55134 | 25629 ft | 454 kts | 152° |
| 2026-04-27 16:18 | 32.08542 | 119.59322 | 24616 ft | 443 kts | 151° |
| 2026-04-27 16:19 | 32.06020 | 119.61377 | 24136 ft | 435 kts | 151° |
| 2026-04-27 16:19 | 32.03554 | 119.63382 | 23626 ft | 427 kts | 150° |
| 2026-04-27 16:20 | 31.96425 | 119.69217 | 21885 ft | 409 kts | 150° |
| 2026-04-27 16:20 | 31.94304 | 119.71439 | 21276 ft | 410 kts | 141° |
| 2026-04-27 16:20 | 31.90853 | 119.76695 | 20140 ft | 405 kts | 128° |
| 2026-04-27 16:21 | 31.89290 | 119.79454 | 19623 ft | 400 kts | 129° |
| 2026-04-27 16:21 | 31.84743 | 119.87488 | 18147 ft | 387 kts | 129° |
| 2026-04-27 16:22 | 31.83234 | 119.90089 | 17649 ft | 384 kts | 128° |
| 2026-04-27 16:22 | 31.80251 | 119.95238 | 16676 ft | 378 kts | 129° |
| 2026-04-27 16:22 | 31.78768 | 119.97758 | 16444 ft | 368 kts | 128° |
| 2026-04-27 16:23 | 31.77373 | 120.00185 | 16433 ft | 352 kts | 128° |
| 2026-04-27 16:23 | 31.74698 | 120.04813 | 16101 ft | 343 kts | 128° |
| 2026-04-27 16:23 | 31.73368 | 120.07111 | 15836 ft | 337 kts | 128° |
| 2026-04-27 16:24 | 31.72052 | 120.09383 | 15591 ft | 333 kts | 128° |
| 2026-04-27 16:24 | 31.69461 | 120.13854 | 15108 ft | 332 kts | 128° |
| 2026-04-27 16:25 | 31.66862 | 120.18330 | 14620 ft | 329 kts | 128° |
| 2026-04-27 16:25 | 31.64302 | 120.22741 | 14136 ft | 327 kts | 127° |
| 2026-04-27 16:26 | 31.61761 | 120.27127 | 13654 ft | 324 kts | 127° |
| 2026-04-27 16:26 | 31.59261 | 120.31521 | 13169 ft | 323 kts | 121° |
| 2026-04-27 16:27 | 31.57590 | 120.36392 | 12686 ft | 323 kts | 110° |
| 2026-04-27 16:27 | 31.55424 | 120.43797 | 11966 ft | 318 kts | 111° |
| 2026-04-27 16:28 | 31.53966 | 120.48680 | 11486 ft | 315 kts | 111° |
| 2026-04-27 16:28 | 31.52531 | 120.53478 | 11010 ft | 313 kts | 110° |
| 2026-04-27 16:29 | 31.50380 | 120.60674 | 10289 ft | 308 kts | 110° |
| 2026-04-27 16:30 | 31.48965 | 120.65390 | 9810 ft | 305 kts | 111° |
| 2026-04-27 16:30 | 31.47558 | 120.70068 | 9320 ft | 302 kts | 110° |
| 2026-04-27 16:31 | 31.45486 | 120.76958 | 8589 ft | 297 kts | 110° |
| 2026-04-27 16:31 | 31.44116 | 120.81500 | 8101 ft | 293 kts | 110° |
| 2026-04-27 16:32 | 31.42768 | 120.85965 | 7805 ft | 291 kts | 110° |
| 2026-04-27 16:32 | 31.42093 | 120.88203 | 7798 ft | 291 kts | 110° |
| 2026-04-27 16:33 | 31.40782 | 120.92538 | 7792 ft | 268 kts | 110° |
| 2026-04-27 16:33 | 31.40185 | 120.94560 | 7653 ft | 261 kts | 104° |
| 2026-04-27 16:33 | 31.39914 | 120.96648 | 7365 ft | 260 kts | 95° |
| 2026-04-27 16:33 | 31.39770 | 120.98757 | 7013 ft | 263 kts | 94° |
| 2026-04-27 16:34 | 31.39632 | 121.00909 | 6641 ft | 266 kts | 94° |
| 2026-04-27 16:34 | 31.39489 | 121.03089 | 6273 ft | 267 kts | 94° |
| 2026-04-27 16:34 | 31.39347 | 121.05233 | 5911 ft | 268 kts | 94° |
| 2026-04-27 16:34 | 31.39201 | 121.07404 | 5532 ft | 265 kts | 94° |
| 2026-04-27 16:35 | 31.39053 | 121.09551 | 5167 ft | 262 kts | 94° |
| 2026-04-27 16:35 | 31.38909 | 121.11651 | 4817 ft | 257 kts | 94° |
| 2026-04-27 16:35 | 31.38638 | 121.15720 | 4099 ft | 246 kts | 94° |
| 2026-04-27 16:36 | 31.38500 | 121.17713 | 3737 ft | 241 kts | 94° |
| 2026-04-27 16:36 | 31.38367 | 121.19638 | 3381 ft | 237 kts | 95° |
| 2026-04-27 16:36 | 31.38241 | 121.21558 | 3023 ft | 234 kts | 95° |
| 2026-04-27 16:36 | 31.38179 | 121.23428 | 2663 ft | 232 kts | 89° |
| 2026-04-27 16:37 | 31.38220 | 121.25321 | 2300 ft | 229 kts | 89° |
| 2026-04-27 16:37 | 31.38247 | 121.27189 | 1958 ft | 231 kts | 90° |
| 2026-04-27 16:37 | 31.38262 | 121.29052 | 1811 ft | 222 kts | 91° |
| 2026-04-27 16:37 | 31.37979 | 121.30730 | 1781 ft | 202 kts | 121° |
| 2026-04-27 16:38 | 31.37149 | 121.31924 | 1783 ft | 180 kts | 140° |
| 2026-04-27 16:38 | 31.36109 | 121.32567 | 1782 ft | 159 kts | 166° |
| 2026-04-27 16:38 | 31.35066 | 121.32838 | 1790 ft | 148 kts | 178° |
| 2026-04-27 16:38 | 31.34039 | 121.32886 | 1798 ft | 146 kts | 181° |
| 2026-04-27 16:39 | 31.33042 | 121.32922 | 1796 ft | 144 kts | 180° |
| 2026-04-27 16:39 | 31.32024 | 121.32978 | 1797 ft | 143 kts | 180° |
| 2026-04-27 16:39 | 31.31031 | 121.33024 | 1804 ft | 143 kts | 180° |
| 2026-04-27 16:39 | 31.30019 | 121.33075 | 1679 ft | 146 kts | 179° |
| 2026-04-27 16:40 | 31.29024 | 121.33134 | 1502 ft | 144 kts | 180° |
| 2026-04-27 16:40 | 31.28025 | 121.33186 | 1318 ft | 142 kts | 180° |
| 2026-04-27 16:40 | 31.27041 | 121.33238 | 1142 ft | 142 kts | 180° |
| 2026-04-27 16:40 | 31.26047 | 121.33292 | 954 ft | 142 kts | 180° |
| 2026-04-27 16:41 | 31.25051 | 121.33346 | 770 ft | 142 kts | 179° |
| 2026-04-27 16:41 | 31.24066 | 121.33398 | 587 ft | 142 kts | 179° |
| 2026-04-27 16:41 | 31.23067 | 121.33453 | 400 ft | 142 kts | 178° |
| 2026-04-27 16:41 | 31.22084 | 121.33508 | 213 ft | 142 kts | 177° |
| 2026-04-27 16:42 | 31.21096 | 121.33569 | 38 ft | 141 kts | 179° |
| 2026-04-27 16:42 | 31.20202 | 121.33610 | 20 ft | 111 kts | 177° |
| 2026-04-27 16:42 | 31.19585 | 121.33641 | 20 ft | 67 kts | 177° |
| 2026-04-27 16:42 | 31.19261 | 121.33658 | 20 ft | 31 kts | 178° |
| 2026-04-27 16:43 | 31.19061 | 121.33629 | 20 ft | 26 kts | 200° |
| 2026-04-27 16:43 | 31.18917 | 121.33551 | 20 ft | 20 kts | 207° |
| 2026-04-27 16:43 | 31.18792 | 121.33499 | 20 ft | 18 kts | 188° |
| 2026-04-27 16:43 | 31.18672 | 121.33499 | 20 ft | 16 kts | 178° |
| 2026-04-27 16:44 | 31.18560 | 121.33505 | 20 ft | 15 kts | 176° |
| 2026-04-27 16:44 | 31.18484 | 121.33458 | 20 ft | 12 kts | 261° |
| 2026-04-27 16:44 | 31.18479 | 121.33353 | 20 ft | 14 kts | 268° |
| 2026-04-27 16:44 | 31.18474 | 121.33224 | 20 ft | 17 kts | 266° |
| 2026-04-27 16:45 | 31.18534 | 121.33124 | 20 ft | 18 kts | 352° |
| 2026-04-27 16:45 | 31.18667 | 121.33118 | 20 ft | 20 kts | 357° |
| 2026-04-27 16:45 | 31.18818 | 121.33109 | 20 ft | 21 kts | 357° |
| 2026-04-27 16:45 | 31.18973 | 121.33100 | 20 ft | 23 kts | 357° |
| 2026-04-27 16:46 | 31.19141 | 121.33091 | 20 ft | 25 kts | 357° |
| 2026-04-27 16:46 | 31.19324 | 121.33081 | 20 ft | 27 kts | 357° |
| 2026-04-27 16:46 | 31.19467 | 121.32994 | 20 ft | 23 kts | 341° |
| 2026-04-27 16:46 | 31.19602 | 121.32982 | 20 ft | 11 kts | 356° |
| 2026-04-27 16:47 | 31.19655 | 121.32923 | 20 ft | 14 kts | 268° |
| 2026-04-27 16:47 | 31.19648 | 121.32797 | 20 ft | 17 kts | 267° |
| 2026-04-27 16:47 | 31.19667 | 121.32651 | 20 ft | 19 kts | 282° |
| 2026-04-27 16:47 | 31.19669 | 121.32569 | 20 ft | 8 kts | 269° |
| 2026-04-27 16:48 | 31.19668 | 121.32540 | 20 ft | 0 kts | 268° |
| 2026-04-27 16:48 | 31.19668 | 121.32539 | 20 ft | 0 kts | 268° |